createdAt,value
2023-02-26T00:00:36.153Z,2.90
2023-02-26T00:03:08.634Z,3.20
2023-02-26T00:05:21.414Z,2.90
2023-02-26T00:07:34.971Z,4.30
2023-02-26T00:09:47.625Z,4.30
2023-02-26T00:12:00.986Z,3.70
2023-02-26T00:14:15.548Z,3.90
2023-02-26T00:16:30.199Z,6.60
2023-02-26T00:18:42.969Z,3.30
2023-02-26T00:20:55.979Z,2.90
2023-02-26T00:23:14.200Z,3.00
2023-02-26T00:25:26.749Z,3.40
2023-02-26T00:27:39.643Z,2.70
2023-02-26T00:29:52.717Z,2.80
2023-02-26T00:32:05.632Z,2.00
2023-02-26T00:34:18.585Z,2.20
2023-02-26T00:36:49.088Z,1.70
2023-02-26T00:39:07.720Z,1.80
2023-02-26T00:41:20.636Z,2.20
2023-02-26T00:43:33.506Z,2.30
2023-02-26T00:46:25.186Z,2.00
2023-02-26T00:48:58.284Z,2.60
2023-02-26T00:51:23.490Z,1.90
2023-02-26T00:53:47.764Z,2.10
2023-02-26T00:56:00.254Z,1.80
2023-02-26T00:58:12.930Z,2.50
2023-02-26T01:00:25.574Z,2.20
2023-02-26T01:02:39.749Z,2.40
2023-02-26T01:04:52.665Z,3.70
2023-02-26T01:07:05.394Z,3.30
2023-02-26T01:09:35.359Z,3.40
2023-02-26T01:11:48.592Z,4.30
2023-02-26T01:14:02.049Z,3.90
2023-02-26T01:16:23.718Z,2.90
2023-02-26T01:18:47.069Z,4.70
2023-02-26T01:21:08.819Z,3.10
2023-02-26T01:23:25.912Z,2.80
2023-02-26T01:25:47.434Z,2.70
2023-02-26T01:28:00.120Z,2.80
2023-02-26T01:30:13.379Z,4.70
2023-02-26T01:32:44.703Z,9.10
2023-02-26T01:35:09.605Z,6.80
2023-02-26T01:37:46.675Z,4.50
2023-02-26T01:40:25.010Z,5.80
2023-02-26T01:42:42.732Z,8.50
2023-02-26T01:45:10.837Z,5.80
2023-02-26T01:47:33.570Z,4.20
2023-02-26T01:49:46.500Z,5.40
2023-02-26T01:52:05.832Z,4.90
2023-02-26T01:54:24.639Z,4.80
2023-02-26T01:56:38.492Z,4.50
2023-02-26T01:58:51.123Z,6.90
2023-02-26T02:01:04.643Z,5.10
2023-02-26T02:03:17.346Z,4.10
2023-02-26T02:05:43.483Z,8.60
2023-02-26T02:07:57.338Z,7.10
2023-02-26T02:10:10.610Z,8.10
2023-02-26T02:12:38.069Z,9.10
2023-02-26T02:14:56.647Z,6.80
2023-02-26T02:17:41.264Z,4.70
2023-02-26T02:20:24.698Z,6.30
2023-02-26T02:22:59.705Z,5.20
2023-02-26T02:25:45.551Z,3.50
2023-02-26T02:28:21.705Z,4.70
2023-02-26T02:31:18.946Z,7.00
2023-02-26T02:33:37.447Z,6.20
2023-02-26T02:35:59.287Z,5.40
2023-02-26T02:38:18.944Z,6.70
2023-02-26T02:40:41.543Z,5.00
2023-02-26T02:43:03.182Z,6.20
2023-02-26T02:45:47.134Z,4.90
2023-02-26T02:48:05.619Z,6.40
2023-02-26T02:50:28.131Z,7.70
2023-02-26T02:52:52.996Z,6.10
2023-02-26T02:55:12.148Z,4.50
2023-02-26T02:57:32.289Z,4.00
2023-02-26T02:59:52.093Z,2.30
2023-02-26T03:02:21.727Z,4.90
2023-02-26T03:04:35.210Z,3.90
2023-02-26T03:06:49.963Z,2.90
2023-02-26T03:09:04.535Z,4.00
2023-02-26T03:11:17.153Z,3.70
2023-02-26T03:13:29.881Z,4.30
2023-02-26T03:16:06.064Z,3.90
2023-02-26T03:18:32.943Z,2.80
2023-02-26T03:21:28.910Z,5.00
2023-02-26T03:24:14.535Z,4.10
2023-02-26T03:26:42.802Z,2.30
2023-02-26T03:29:19.808Z,2.60
2023-02-26T03:32:00.054Z,4.70
2023-02-26T03:34:21.656Z,2.90
2023-02-26T03:36:59.437Z,2.80
2023-02-26T03:39:22.512Z,2.30
2023-02-26T03:41:48.028Z,2.20
2023-02-26T03:44:06.902Z,2.00
2023-02-26T03:46:25.640Z,2.10
2023-02-26T03:48:38.531Z,1.90
2023-02-26T03:50:55.143Z,2.00
2023-02-26T03:53:12.332Z,2.20
2023-02-26T03:55:37.667Z,2.60
2023-02-26T03:57:50.392Z,2.30
2023-02-26T04:00:04.709Z,3.80
2023-02-26T04:02:22.659Z,3.10
2023-02-26T04:05:05.517Z,2.50
2023-02-26T04:07:19.640Z,1.50
2023-02-26T04:09:32.320Z,2.00
2023-02-26T04:11:46.132Z,2.00
2023-02-26T04:13:59.083Z,2.10
2023-02-26T04:16:11.941Z,1.50
2023-02-26T04:18:24.639Z,1.50
2023-02-26T04:20:37.248Z,2.00
2023-02-26T04:22:49.793Z,1.70
2023-02-26T04:25:02.357Z,1.70
2023-02-26T04:27:14.950Z,1.90
2023-02-26T04:29:27.636Z,1.80
2023-02-26T04:31:40.277Z,1.80
2023-02-26T04:33:52.825Z,2.10
2023-02-26T04:36:05.723Z,2.50
2023-02-26T04:38:18.307Z,1.90
2023-02-26T04:40:31.433Z,1.80
2023-02-26T04:42:45.817Z,1.80
2023-02-26T04:44:59.594Z,1.70
2023-02-26T04:47:12.137Z,1.40
2023-02-26T04:49:24.777Z,1.40
2023-02-26T04:51:37.388Z,2.00
2023-02-26T04:53:49.974Z,2.30
2023-02-26T04:56:02.576Z,2.50
2023-02-26T04:58:15.524Z,1.70
2023-02-26T05:00:28.322Z,2.50
2023-02-26T05:02:41.322Z,1.90
2023-02-26T05:04:53.960Z,2.10
2023-02-26T05:07:06.535Z,1.70
2023-02-26T05:09:19.187Z,2.00
2023-02-26T05:11:31.794Z,2.00
2023-02-26T05:13:44.618Z,1.70
2023-02-26T05:15:57.202Z,1.60
2023-02-26T05:18:09.999Z,1.90
2023-02-26T05:20:22.698Z,1.80
2023-02-26T05:22:35.754Z,2.20
2023-02-26T05:24:48.455Z,2.00
2023-02-26T05:27:00.995Z,1.80
2023-02-26T05:29:13.532Z,2.10
2023-02-26T05:31:26.971Z,2.20
2023-02-26T05:33:39.608Z,2.20
2023-02-26T05:35:52.540Z,1.80
2023-02-26T05:38:05.108Z,1.70
2023-02-26T05:40:17.854Z,1.30
2023-02-26T05:42:30.466Z,1.70
2023-02-26T05:44:43.024Z,1.70
2023-02-26T05:46:55.688Z,1.60
2023-02-26T05:49:08.456Z,2.50
2023-02-26T05:51:21.184Z,2.30
2023-02-26T05:53:33.770Z,2.80
2023-02-26T05:55:46.454Z,2.70
2023-02-26T05:57:59.053Z,3.00
2023-02-26T06:00:12.824Z,3.20
2023-02-26T06:02:25.644Z,2.80
2023-02-26T06:04:38.306Z,2.90
2023-02-26T06:06:50.896Z,2.30
2023-02-26T06:09:03.544Z,2.20
2023-02-26T06:11:16.122Z,2.70
2023-02-26T06:13:28.698Z,2.60
2023-02-26T06:15:41.303Z,3.20
2023-02-26T06:17:53.887Z,2.90
2023-02-26T06:20:06.809Z,3.20
2023-02-26T06:22:19.996Z,2.50
2023-02-26T06:24:32.681Z,2.30
2023-02-26T06:26:45.234Z,2.10
2023-02-26T06:28:57.909Z,1.80
2023-02-26T06:31:10.899Z,1.90
2023-02-26T06:33:24.134Z,1.60
2023-02-26T06:35:37.207Z,1.90
2023-02-26T06:37:50.234Z,1.80
2023-02-26T06:40:04.252Z,1.90
2023-02-26T06:42:19.028Z,1.60
2023-02-26T06:44:32.554Z,1.60
2023-02-26T06:46:45.144Z,1.40
2023-02-26T06:48:57.682Z,1.50
2023-02-26T06:51:10.249Z,1.60
2023-02-26T06:53:23.406Z,1.70
2023-02-26T06:55:36.032Z,1.70
2023-02-26T06:57:48.579Z,1.40
2023-02-26T07:00:01.260Z,1.60
2023-02-26T07:02:17.810Z,1.40
2023-02-26T07:04:30.435Z,1.60
2023-02-26T07:06:43.162Z,2.20
2023-02-26T07:08:56.034Z,2.50
2023-02-26T07:11:09.968Z,1.80
2023-02-26T07:13:22.471Z,4.30
2023-02-26T07:15:35.052Z,9.30
2023-02-26T07:17:47.675Z,2.40
2023-02-26T07:20:06.269Z,5.60
2023-02-26T07:22:21.913Z,4.80
2023-02-26T07:24:34.813Z,4.00
2023-02-26T07:26:47.373Z,1.90
2023-02-26T07:28:59.907Z,2.10
2023-02-26T07:31:12.556Z,2.90
2023-02-26T07:33:26.513Z,2.40
2023-02-26T07:35:39.531Z,2.10
2023-02-26T07:37:52.253Z,2.30
2023-02-26T07:40:05.588Z,2.90
2023-02-26T07:42:18.376Z,2.00
2023-02-26T07:44:30.876Z,2.80
2023-02-26T07:46:43.500Z,1.90
2023-02-26T07:48:56.074Z,2.60
2023-02-26T07:51:10.988Z,2.50
2023-02-26T07:53:23.662Z,1.70
2023-02-26T07:55:36.319Z,2.10
2023-02-26T07:57:50.107Z,4.20
2023-02-26T08:00:02.863Z,2.70
2023-02-26T08:02:15.372Z,2.10
2023-02-26T08:04:28.007Z,4.80
2023-02-26T08:06:40.672Z,7.20
2023-02-26T08:08:53.257Z,9.20
2023-02-26T08:11:05.844Z,2.30
2023-02-26T08:13:18.880Z,5.20
2023-02-26T08:15:31.395Z,4.40
2023-02-26T08:17:44.161Z,10.10
2023-02-26T08:19:56.668Z,3.20
2023-02-26T08:22:09.316Z,3.60
2023-02-26T08:24:22.503Z,2.40
2023-02-26T08:26:36.833Z,2.80
2023-02-26T08:28:50.553Z,1.80
2023-02-26T08:31:03.876Z,5.70
2023-02-26T08:33:16.526Z,2.40
2023-02-26T08:35:29.072Z,1.60
2023-02-26T08:37:41.678Z,2.30
2023-02-26T08:39:54.351Z,5.00
2023-02-26T08:42:08.642Z,8.10
2023-02-26T08:44:21.162Z,5.00
2023-02-26T08:46:34.197Z,2.30
2023-02-26T08:48:46.872Z,1.90
2023-02-26T08:50:59.478Z,4.50
2023-02-26T08:53:12.120Z,5.30
2023-02-26T08:55:24.921Z,3.90
2023-02-26T08:57:37.529Z,4.10
2023-02-26T08:59:50.023Z,11.60
2023-02-26T09:02:02.644Z,4.50
2023-02-26T09:04:15.463Z,6.30
2023-02-26T09:06:28.412Z,3.80
2023-02-26T09:08:41.078Z,3.40
2023-02-26T09:10:53.671Z,3.20
2023-02-26T09:13:06.283Z,2.60
2023-02-26T09:15:20.057Z,2.30
2023-02-26T09:17:34.042Z,2.30
2023-02-26T09:19:46.578Z,3.00
2023-02-26T09:21:59.150Z,2.00
2023-02-26T09:24:11.751Z,2.70
2023-02-26T09:26:24.794Z,2.30
2023-02-26T09:28:37.596Z,2.40
2023-02-26T09:30:54.358Z,4.00
2023-02-26T09:33:07.020Z,2.80
2023-02-26T09:35:19.626Z,1.90
2023-02-26T09:37:32.499Z,2.40
2023-02-26T09:39:45.219Z,1.90
2023-02-26T09:42:11.224Z,2.10
2023-02-26T09:44:36.484Z,2.80
2023-02-26T09:47:13.065Z,3.90
2023-02-26T09:49:32.954Z,2.90
2023-02-26T09:51:50.601Z,2.80
2023-02-26T09:54:14.839Z,2.40
2023-02-26T09:56:32.438Z,3.00
2023-02-26T09:58:45.803Z,2.10
2023-02-26T10:01:18.802Z,2.80
2023-02-26T10:03:41.833Z,2.40
2023-02-26T10:06:07.186Z,1.90
2023-02-26T10:08:22.396Z,3.20
2023-02-26T10:10:45.353Z,3.70
2023-02-26T10:13:00.609Z,3.20
2023-02-26T10:15:27.825Z,2.50
2023-02-26T10:18:00.055Z,2.00
2023-02-26T10:20:21.349Z,2.90
2023-02-26T10:22:47.168Z,2.60
2023-02-26T10:25:21.225Z,4.50
2023-02-26T10:27:59.161Z,14.00
2023-02-26T10:30:22.486Z,4.80
2023-02-26T10:32:41.255Z,2.40
2023-02-26T10:34:58.290Z,3.90
2023-02-26T10:37:43.793Z,2.10
2023-02-26T10:40:11.730Z,2.70
2023-02-26T10:42:32.617Z,3.40
2023-02-26T10:45:00.377Z,3.80
2023-02-26T10:47:37.408Z,3.00
2023-02-26T10:50:03.956Z,1.90
2023-02-26T10:52:24.643Z,5.60
2023-02-26T10:55:04.152Z,6.70
2023-02-26T10:57:47.607Z,1.90
2023-02-26T11:00:06.086Z,2.00
2023-02-26T11:02:32.599Z,4.70
2023-02-26T11:04:45.241Z,10.50
2023-02-26T11:07:00.689Z,7.30
2023-02-26T11:09:22.377Z,4.90
2023-02-26T11:11:45.797Z,2.90
2023-02-26T11:13:59.083Z,5.00
2023-02-26T11:16:15.489Z,10.60
2023-02-26T11:18:49.618Z,8.50
2023-02-26T11:21:05.423Z,4.40
2023-02-26T11:23:21.354Z,2.80
2023-02-26T11:25:36.114Z,2.20
2023-02-26T11:27:53.376Z,2.70
2023-02-26T11:30:18.561Z,4.50
2023-02-26T11:32:34.752Z,11.40
2023-02-26T11:34:51.435Z,8.30
2023-02-26T11:37:04.520Z,3.80
2023-02-26T11:39:30.282Z,5.20
2023-02-26T11:41:46.942Z,2.60
2023-02-26T11:44:06.828Z,3.80
2023-02-26T11:46:25.413Z,4.60
2023-02-26T11:48:43.210Z,4.40
2023-02-26T11:51:00.350Z,9.10
2023-02-26T11:53:31.131Z,2.40
2023-02-26T11:55:48.150Z,2.50
2023-02-26T11:58:00.837Z,2.40
2023-02-26T12:00:20.649Z,3.10
2023-02-26T12:02:37.137Z,3.20
2023-02-26T12:04:53.942Z,2.20
2023-02-26T12:07:11.549Z,2.30
2023-02-26T12:09:25.767Z,2.60
2023-02-26T12:11:56.642Z,2.30
2023-02-26T12:14:30.475Z,3.40
2023-02-26T12:17:00.741Z,2.70
2023-02-26T12:19:35.352Z,2.20
2023-02-26T12:22:29.872Z,4.70
2023-02-26T12:25:16.585Z,2.80
2023-02-26T12:27:46.256Z,2.40
2023-02-26T12:30:30.323Z,3.40
2023-02-26T12:32:45.885Z,8.80
2023-02-26T12:35:30.665Z,3.30
2023-02-26T12:37:59.644Z,2.20
2023-02-26T12:40:33.461Z,2.20
2023-02-26T12:42:59.688Z,2.10
2023-02-26T12:45:26.401Z,2.40
2023-02-26T12:47:48.572Z,5.60
2023-02-26T12:50:22.290Z,2.90
2023-02-26T12:52:58.481Z,1.50
2023-02-26T12:55:24.277Z,2.00
2023-02-26T12:57:58.552Z,2.60
2023-02-26T13:00:25.955Z,4.10
2023-02-26T13:02:57.957Z,3.20
2023-02-26T13:05:23.984Z,2.40
2023-02-26T13:07:55.086Z,2.60
2023-02-26T13:10:21.808Z,2.20
2023-02-26T13:12:48.157Z,2.10
2023-02-26T13:15:17.869Z,1.50
2023-02-26T13:18:02.996Z,3.30
2023-02-26T13:20:20.052Z,2.70
2023-02-26T13:22:39.471Z,2.80
2023-02-26T13:25:29.686Z,2.80
2023-02-26T13:27:44.711Z,2.40
2023-02-26T13:30:26.452Z,2.80
2023-02-26T13:32:42.622Z,5.10
2023-02-26T13:35:04.795Z,6.30
2023-02-26T13:37:24.063Z,7.80
2023-02-26T13:39:55.475Z,5.70
2023-02-26T13:42:38.017Z,1.60
2023-02-26T13:45:18.691Z,2.60
2023-02-26T13:47:46.501Z,2.50
2023-02-26T13:50:18.661Z,2.90
2023-02-26T13:52:34.589Z,2.80
2023-02-26T13:54:48.788Z,1.80
2023-02-26T13:57:37.325Z,2.00
2023-02-26T13:59:54.480Z,4.40
2023-02-26T14:02:19.261Z,6.50
2023-02-26T14:04:49.344Z,4.50
2023-02-26T14:07:15.967Z,5.50
2023-02-26T14:09:28.491Z,8.70
2023-02-26T14:12:01.206Z,13.70
2023-02-26T14:14:25.157Z,10.10
2023-02-26T14:16:41.428Z,6.20
2023-02-26T14:19:05.045Z,5.80
2023-02-26T14:21:26.957Z,6.10
2023-02-26T14:23:41.050Z,4.60
2023-02-26T14:25:54.901Z,6.70
2023-02-26T14:28:25.764Z,3.70
2023-02-26T14:30:46.538Z,2.00
2023-02-26T14:33:05.744Z,3.80
2023-02-26T14:35:28.067Z,2.50
2023-02-26T14:37:42.341Z,7.00
2023-02-26T14:40:09.037Z,3.90
2023-02-26T14:42:33.406Z,3.30
2023-02-26T14:44:54.381Z,4.60
2023-02-26T14:47:08.451Z,8.40
2023-02-26T14:49:27.859Z,12.80
2023-02-26T14:52:00.739Z,11.60
2023-02-26T14:54:25.603Z,1.90
2023-02-26T14:56:56.730Z,1.90
2023-02-26T14:59:46.423Z,1.90
2023-02-26T15:02:14.428Z,1.80
2023-02-26T15:04:44.975Z,2.00
2023-02-26T15:07:41.013Z,2.30
2023-02-26T15:10:14.002Z,2.50
2023-02-26T15:12:29.234Z,2.90
2023-02-26T15:14:59.167Z,3.20
2023-02-26T15:17:29.002Z,3.00
2023-02-26T15:20:09.332Z,2.70
2023-02-26T15:22:27.958Z,2.30
2023-02-26T15:24:41.040Z,2.10
2023-02-26T15:27:00.117Z,2.00
2023-02-26T15:29:14.610Z,2.10
2023-02-26T15:31:42.786Z,2.40
2023-02-26T15:33:57.045Z,2.40
2023-02-26T15:36:14.218Z,3.70
2023-02-26T15:38:27.709Z,4.70
2023-02-26T15:40:40.719Z,7.10
2023-02-26T15:42:56.360Z,4.90
2023-02-26T15:45:36.069Z,20.50
2023-02-26T15:47:55.291Z,8.40
2023-02-26T15:50:10.013Z,5.10
2023-02-26T15:52:25.426Z,5.30
2023-02-26T15:54:44.744Z,4.80
2023-02-26T15:56:57.351Z,3.80
2023-02-26T15:59:14.135Z,3.50
2023-02-26T16:01:28.799Z,7.90
2023-02-26T16:03:41.431Z,14.60
2023-02-26T16:05:55.811Z,11.50
2023-02-26T16:08:14.121Z,14.80
2023-02-26T16:10:32.861Z,10.30
2023-02-26T16:12:49.103Z,17.80
2023-02-26T16:15:07.025Z,14.00
2023-02-26T16:17:30.532Z,15.90
2023-02-26T16:19:48.860Z,15.50
2023-02-26T16:22:07.385Z,31.60
2023-02-26T16:24:23.095Z,48.20
2023-02-26T16:26:44.671Z,47.60
2023-02-26T16:29:04.367Z,29.50
2023-02-26T16:31:22.700Z,20.90
2023-02-26T16:33:35.480Z,17.70
2023-02-26T16:35:53.109Z,17.70
2023-02-26T16:38:17.130Z,23.00
2023-02-26T16:40:36.819Z,21.30
2023-02-26T16:43:24.751Z,17.20
2023-02-26T16:45:37.259Z,17.60
2023-02-26T16:47:55.449Z,14.30
2023-02-26T16:50:18.382Z,11.60
2023-02-26T16:52:31.596Z,8.60
2023-02-26T16:54:52.699Z,7.80
2023-02-26T16:57:17.281Z,8.00
2023-02-26T16:59:32.602Z,11.50
2023-02-26T17:02:01.869Z,9.70
2023-02-26T17:04:17.346Z,7.20
2023-02-26T17:06:35.701Z,17.60
2023-02-26T17:08:53.921Z,17.90
2023-02-26T17:11:08.825Z,9.90
2023-02-26T17:13:28.253Z,9.20
2023-02-26T17:15:41.227Z,9.10
2023-02-26T17:17:56.869Z,12.70
2023-02-26T17:20:11.220Z,18.90
2023-02-26T17:22:27.379Z,27.10
2023-02-26T17:24:41.765Z,40.00
2023-02-26T17:26:55.297Z,31.40
2023-02-26T17:29:17.529Z,18.20
2023-02-26T17:31:30.190Z,16.30
2023-02-26T17:33:44.741Z,19.30
2023-02-26T17:36:00.592Z,31.80
2023-02-26T17:38:15.863Z,27.00
2023-02-26T17:40:36.416Z,31.80
2023-02-26T17:42:50.160Z,28.90
2023-02-26T17:45:02.888Z,23.20
2023-02-26T17:47:18.609Z,23.30
2023-02-26T17:49:31.165Z,23.30
2023-02-26T17:51:43.773Z,19.50
2023-02-26T17:53:56.349Z,16.00
2023-02-26T17:56:12.592Z,15.20
2023-02-26T17:58:32.379Z,15.70
2023-02-26T18:00:49.508Z,12.30
2023-02-26T18:03:03.539Z,14.40
2023-02-26T18:05:16.281Z,17.70
2023-02-26T18:07:28.836Z,14.60
2023-02-26T18:09:41.410Z,16.40
2023-02-26T18:11:54.129Z,12.60
2023-02-26T18:14:06.953Z,12.30
2023-02-26T18:16:22.918Z,10.20
2023-02-26T18:18:35.626Z,7.90
2023-02-26T18:20:48.682Z,7.80
2023-02-26T18:23:01.397Z,7.20
2023-02-26T18:25:15.166Z,11.20
2023-02-26T18:27:27.920Z,21.10
2023-02-26T18:29:40.757Z,13.30
2023-02-26T18:31:53.502Z,11.80
2023-02-26T18:34:06.148Z,25.40
2023-02-26T18:36:34.181Z,65.90
2023-02-26T18:38:47.006Z,85.20
2023-02-26T18:41:02.094Z,69.00
2023-02-26T18:43:15.250Z,32.20
2023-02-26T18:45:27.835Z,23.10
2023-02-26T18:47:41.052Z,20.00
2023-02-26T18:49:53.613Z,18.70
2023-02-26T18:52:06.153Z,19.40
2023-02-26T18:54:18.681Z,18.30
2023-02-26T18:56:31.236Z,20.60
2023-02-26T18:58:43.800Z,17.10
2023-02-26T19:00:56.856Z,16.20
2023-02-26T19:03:09.479Z,9.60
2023-02-26T19:05:24.563Z,7.60
2023-02-26T19:07:37.223Z,7.90
2023-02-26T19:09:49.848Z,9.90
2023-02-26T19:12:03.060Z,8.60
2023-02-26T19:14:16.172Z,7.40
2023-02-26T19:16:30.996Z,7.50
2023-02-26T19:18:43.649Z,9.60
2023-02-26T19:20:56.735Z,8.90
2023-02-26T19:23:09.706Z,9.50
2023-02-26T19:25:23.717Z,9.30
2023-02-26T19:27:37.320Z,9.20
2023-02-26T19:29:49.907Z,9.60
2023-02-26T19:32:04.532Z,10.30
2023-02-26T19:34:17.383Z,15.00
2023-02-26T19:36:33.499Z,13.40
2023-02-26T19:38:47.542Z,15.30
2023-02-26T19:41:00.596Z,14.90
2023-02-26T19:43:13.097Z,16.20
2023-02-26T19:45:25.666Z,17.00
2023-02-26T19:47:39.063Z,14.70
2023-02-26T19:49:51.751Z,13.70
2023-02-26T19:52:04.404Z,11.30
2023-02-26T19:54:17.194Z,16.30
2023-02-26T19:56:29.874Z,16.70
2023-02-26T19:58:43.494Z,22.70
2023-02-26T20:00:58.011Z,25.70
2023-02-26T20:03:10.779Z,25.90
2023-02-26T20:05:23.428Z,31.20
2023-02-26T20:07:36.171Z,42.30
2023-02-26T20:09:49.739Z,47.90
2023-02-26T20:12:02.472Z,38.90
2023-02-26T20:14:15.171Z,27.80
2023-02-26T20:16:27.946Z,24.70
2023-02-26T20:18:40.800Z,22.70
2023-02-26T20:20:53.646Z,20.80
2023-02-26T20:23:06.253Z,21.70
2023-02-26T20:25:19.847Z,26.50
2023-02-26T20:27:32.875Z,32.40
2023-02-26T20:29:45.856Z,28.90
2023-02-26T20:31:59.175Z,24.10
2023-02-26T20:34:12.249Z,19.40
2023-02-26T20:36:24.806Z,20.20
2023-02-26T20:38:37.480Z,23.90
2023-02-26T20:40:50.239Z,20.80
2023-02-26T20:43:02.772Z,19.20
2023-02-26T20:45:15.350Z,17.30
2023-02-26T20:47:28.038Z,17.20
2023-02-26T20:49:40.642Z,21.20
2023-02-26T20:51:54.479Z,21.20
2023-02-26T20:54:07.384Z,22.90
2023-02-26T20:56:19.982Z,23.40
2023-02-26T20:58:32.880Z,21.80
2023-02-26T21:00:45.457Z,25.90
2023-02-26T21:02:58.275Z,24.70
2023-02-26T21:05:12.937Z,22.50
2023-02-26T21:07:25.489Z,23.20
2023-02-26T21:09:39.642Z,23.50
2023-02-26T21:11:52.504Z,19.10
2023-02-26T21:14:07.422Z,17.90
2023-02-26T21:16:20.577Z,106.30
2023-02-26T21:18:34.062Z,135.30
2023-02-26T21:20:49.656Z,145.90
2023-02-26T21:23:02.232Z,130.60
2023-02-26T21:25:14.896Z,36.60
2023-02-26T21:27:27.537Z,30.80
2023-02-26T21:29:40.054Z,16.60
2023-02-26T21:31:53.693Z,13.20
2023-02-26T21:34:30.225Z,10.90
2023-02-26T21:36:38.923Z,18.80
2023-02-26T21:38:51.488Z,18.80
2023-02-26T21:41:04.624Z,17.50
2023-02-26T21:43:17.196Z,19.60
2023-02-26T21:45:48.861Z,16.50
2023-02-26T21:48:03.563Z,15.50
2023-02-26T21:50:16.451Z,17.00
2023-02-26T21:52:29.137Z,15.90
2023-02-26T21:54:41.888Z,15.20
2023-02-26T21:56:54.713Z,18.00
2023-02-26T21:59:07.534Z,25.50
2023-02-26T22:01:20.194Z,41.40
2023-02-26T22:03:32.848Z,29.70
2023-02-26T22:05:45.464Z,21.40
2023-02-26T22:07:57.984Z,20.30
2023-02-26T22:10:12.619Z,26.30
2023-02-26T22:12:25.892Z,28.80
2023-02-26T22:14:38.520Z,26.10
2023-02-26T22:16:51.208Z,22.20
2023-02-26T22:19:04.069Z,22.00
2023-02-26T22:21:16.815Z,21.00
2023-02-26T22:23:29.390Z,16.90
2023-02-26T22:25:42.030Z,15.10
2023-02-26T22:27:54.584Z,13.40
2023-02-26T22:30:08.249Z,17.30
2023-02-26T22:32:20.862Z,35.10
2023-02-26T22:34:34.176Z,38.10
2023-02-26T22:36:46.748Z,32.00
2023-02-26T22:38:59.336Z,22.20
2023-02-26T22:41:11.923Z,18.90
2023-02-26T22:43:24.520Z,21.70
2023-02-26T22:45:37.081Z,17.90
2023-02-26T22:47:50.485Z,15.50
2023-02-26T22:50:03.670Z,20.70
2023-02-26T22:52:16.282Z,20.70
2023-02-26T22:54:28.991Z,15.50
2023-02-26T22:56:41.528Z,15.60
2023-02-26T22:58:54.495Z,11.60
2023-02-26T23:01:08.104Z,11.00
2023-02-26T23:03:20.693Z,10.90
2023-02-26T23:05:33.297Z,11.60
2023-02-26T23:07:46.228Z,12.80
2023-02-26T23:09:58.792Z,11.30
2023-02-26T23:12:11.536Z,7.30
2023-02-26T23:14:24.237Z,7.20
2023-02-26T23:16:36.762Z,8.90
2023-02-26T23:18:49.672Z,7.80
2023-02-26T23:21:02.824Z,7.80
2023-02-26T23:23:16.284Z,7.40
2023-02-26T23:25:28.938Z,7.50
2023-02-26T23:27:41.709Z,8.70
2023-02-26T23:29:54.303Z,7.80
2023-02-26T23:32:07.000Z,7.90
2023-02-26T23:34:19.584Z,6.70
2023-02-26T23:36:32.253Z,9.20
2023-02-26T23:38:44.795Z,9.50
2023-02-26T23:40:57.352Z,11.10
2023-02-26T23:43:09.942Z,11.40
2023-02-26T23:45:24.152Z,8.30
2023-02-26T23:47:37.491Z,7.80
2023-02-26T23:49:50.101Z,7.70
2023-02-26T23:52:02.704Z,6.20
2023-02-26T23:54:15.297Z,7.30
2023-02-26T23:56:27.910Z,6.70
2023-02-26T23:58:40.428Z,6.60
